Norway, South Carolina
Current Conditions -  °F | °C
As of 10:09 AM on Monday 24 Nov 2014 (Local Time) from KOGB Reporting Station
Moderate Rain Moderate Rain  
Wind Chill: 68°   Ceiling: 400
Heat Index: 68°   Visibility: 1.7mi
Dew Point: 66°   Wind: 3mph
Humidity: 93%   Direction: 230°SW
Pressure: 29.87"   Gusts: NA
Location:  33.45°N, 81.13°W
Report Text: KOGB 241509Z AUTO 23003KT 1 3/4SM RA BR BKN004 BKN008 OVC042 20/19 A2987 RMK AO2 P0001 T02000189
Loading
Personal Weather Stations






























Interactive Weather Map New forecast layout! Learn more

10-Day Weather Forecast

Advertisements
Track Severe Weather on mobile